sensor_id;sensor_type;location;lat;lon;timestamp;temperature;humidity
29453;DHT22;16424;50.956;5.320;2023-05-24T00:01:45;10.00;99.90
29453;DHT22;16424;50.956;5.320;2023-05-24T00:04:12;10.00;99.90
29453;DHT22;16424;50.956;5.320;2023-05-24T00:06:39;10.00;99.90
29453;DHT22;16424;50.956;5.320;2023-05-24T00:09:06;10.10;99.90
29453;DHT22;16424;50.956;5.320;2023-05-24T00:11:32;10.10;99.90
29453;DHT22;16424;50.956;5.320;2023-05-24T00:13:57;10.10;99.90
29453;DHT22;16424;50.956;5.320;2023-05-24T00:16:23;10.00;99.90
29453;DHT22;16424;50.956;5.320;2023-05-24T00:18:49;9.90;99.90
29453;DHT22;16424;50.956;5.320;2023-05-24T00:21:14;10.00;99.90
29453;DHT22;16424;50.956;5.320;2023-05-24T00:23:41;9.90;99.90
29453;DHT22;16424;50.956;5.320;2023-05-24T00:26:07;9.90;99.90
29453;DHT22;16424;50.956;5.320;2023-05-24T00:28:33;9.90;99.90
29453;DHT22;16424;50.956;5.320;2023-05-24T00:30:59;9.90;99.90
29453;DHT22;16424;50.956;5.320;2023-05-24T00:33:25;10.00;99.90
29453;DHT22;16424;50.956;5.320;2023-05-24T00:35:53;10.00;99.90
29453;DHT22;16424;50.956;5.320;2023-05-24T00:38:24;9.90;99.90
29453;DHT22;16424;50.956;5.320;2023-05-24T00:40:51;9.70;99.90
29453;DHT22;16424;50.956;5.320;2023-05-24T00:43:17;9.70;99.90
29453;DHT22;16424;50.956;5.320;2023-05-24T00:45:43;9.80;99.90
29453;DHT22;16424;50.956;5.320;2023-05-24T00:48:10;9.80;99.90
29453;DHT22;16424;50.956;5.320;2023-05-24T00:50:39;9.80;99.90
29453;DHT22;16424;50.956;5.320;2023-05-24T00:53:06;9.70;99.90
29453;DHT22;16424;50.956;5.320;2023-05-24T00:55:33;9.70;99.90
29453;DHT22;16424;50.956;5.320;2023-05-24T00:58:00;9.80;99.90
29453;DHT22;16424;50.956;5.320;2023-05-24T01:00:26;9.90;99.90
29453;DHT22;16424;50.956;5.320;2023-05-24T01:02:53;9.90;99.90
29453;DHT22;16424;50.956;5.320;2023-05-24T01:05:19;9.90;99.90
29453;DHT22;16424;50.956;5.320;2023-05-24T01:10:24;9.70;99.90
29453;DHT22;16424;50.956;5.320;2023-05-24T01:12:59;9.60;99.90
29453;DHT22;16424;50.956;5.320;2023-05-24T01:15:45;9.50;99.90
29453;DHT22;16424;50.956;5.320;2023-05-24T01:18:20;9.40;99.90
29453;DHT22;16424;50.956;5.320;2023-05-24T01:27:07;9.30;99.90
29453;DHT22;16424;50.956;5.320;2023-05-24T01:29:34;9.00;99.90
29453;DHT22;16424;50.956;5.320;2023-05-24T01:32:01;9.00;99.90
29453;DHT22;16424;50.956;5.320;2023-05-24T01:34:27;8.80;99.90
29453;DHT22;16424;50.956;5.320;2023-05-24T01:36:53;8.90;99.90
29453;DHT22;16424;50.956;5.320;2023-05-24T01:39:19;8.80;99.90
29453;DHT22;16424;50.956;5.320;2023-05-24T01:44:42;8.80;99.90
29453;DHT22;16424;50.956;5.320;2023-05-24T01:47:31;8.60;99.90
29453;DHT22;16424;50.956;5.320;2023-05-24T01:50:15;8.50;99.90
29453;DHT22;16424;50.956;5.320;2023-05-24T01:52:43;8.60;99.90
29453;DHT22;16424;50.956;5.320;2023-05-24T01:55:13;8.60;99.90
29453;DHT22;16424;50.956;5.320;2023-05-24T01:57:40;8.60;99.90
29453;DHT22;16424;50.956;5.320;2023-05-24T02:00:09;8.60;99.90
29453;DHT22;16424;50.956;5.320;2023-05-24T02:02:35;8.60;99.90
29453;DHT22;16424;50.956;5.320;2023-05-24T02:05:00;8.40;99.90
29453;DHT22;16424;50.956;5.320;2023-05-24T02:07:26;8.40;99.90
29453;DHT22;16424;50.956;5.320;2023-05-24T02:09:52;8.40;99.90
29453;DHT22;16424;50.956;5.320;2023-05-24T02:12:17;8.40;99.90
29453;DHT22;16424;50.956;5.320;2023-05-24T02:14:43;8.50;99.90
29453;DHT22;16424;50.956;5.320;2023-05-24T02:17:09;8.60;99.90
29453;DHT22;16424;50.956;5.320;2023-05-24T02:19:34;8.70;99.90
29453;DHT22;16424;50.956;5.320;2023-05-24T02:22:01;8.70;99.90
29453;DHT22;16424;50.956;5.320;2023-05-24T02:24:27;8.50;99.90
29453;DHT22;16424;50.956;5.320;2023-05-24T02:26:53;8.40;99.90
29453;DHT22;16424;50.956;5.320;2023-05-24T02:29:21;8.40;99.90
29453;DHT22;16424;50.956;5.320;2023-05-24T02:31:46;8.40;99.90
29453;DHT22;16424;50.956;5.320;2023-05-24T02:34:15;8.30;99.90
29453;DHT22;16424;50.956;5.320;2023-05-24T02:36:40;8.40;99.90
29453;DHT22;16424;50.956;5.320;2023-05-24T02:39:07;8.30;99.90
29453;DHT22;16424;50.956;5.320;2023-05-24T02:41:32;8.30;99.90
29453;DHT22;16424;50.956;5.320;2023-05-24T02:43:58;8.20;99.90
29453;DHT22;16424;50.956;5.320;2023-05-24T02:46:23;8.30;99.90
29453;DHT22;16424;50.956;5.320;2023-05-24T02:48:49;8.40;99.90
29453;DHT22;16424;50.956;5.320;2023-05-24T02:51:15;8.30;99.90
29453;DHT22;16424;50.956;5.320;2023-05-24T02:53:41;8.40;99.90
29453;DHT22;16424;50.956;5.320;2023-05-24T02:56:07;8.40;99.90
29453;DHT22;16424;50.956;5.320;2023-05-24T02:58:33;8.30;99.90
29453;DHT22;16424;50.956;5.320;2023-05-24T03:01:04;8.30;99.90
29453;DHT22;16424;50.956;5.320;2023-05-24T03:03:30;8.30;99.90
29453;DHT22;16424;50.956;5.320;2023-05-24T03:05:56;8.30;99.90
29453;DHT22;16424;50.956;5.320;2023-05-24T03:08:21;8.30;99.90
29453;DHT22;16424;50.956;5.320;2023-05-24T03:10:47;8.30;99.90
29453;DHT22;16424;50.956;5.320;2023-05-24T03:13:13;8.20;99.90
29453;DHT22;16424;50.956;5.320;2023-05-24T03:15:38;8.20;99.90
29453;DHT22;16424;50.956;5.320;2023-05-24T03:18:05;8.20;99.90
29453;DHT22;16424;50.956;5.320;2023-05-24T03:20:30;8.20;99.90
29453;DHT22;16424;50.956;5.320;2023-05-24T03:22:58;8.30;99.90
29453;DHT22;16424;50.956;5.320;2023-05-24T03:25:23;8.20;99.90
29453;DHT22;16424;50.956;5.320;2023-05-24T03:27:49;8.10;99.90
29453;DHT22;16424;50.956;5.320;2023-05-24T03:30:15;7.80;99.90
29453;DHT22;16424;50.956;5.320;2023-05-24T03:32:40;7.60;99.90
29453;DHT22;16424;50.956;5.320;2023-05-24T03:35:06;7.60;99.90
29453;DHT22;16424;50.956;5.320;2023-05-24T03:37:32;7.50;99.90
29453;DHT22;16424;50.956;5.320;2023-05-24T03:39:57;7.60;99.90
29453;DHT22;16424;50.956;5.320;2023-05-24T03:42:23;7.70;99.90
29453;DHT22;16424;50.956;5.320;2023-05-24T03:44:49;7.70;99.90
29453;DHT22;16424;50.956;5.320;2023-05-24T03:47:14;7.70;99.90
29453;DHT22;16424;50.956;5.320;2023-05-24T03:49:40;7.80;99.90
29453;DHT22;16424;50.956;5.320;2023-05-24T03:52:06;7.90;99.90
29453;DHT22;16424;50.956;5.320;2023-05-24T03:54:31;8.00;99.90
29453;DHT22;16424;50.956;5.320;2023-05-24T03:56:57;8.00;99.90
29453;DHT22;16424;50.956;5.320;2023-05-24T03:59:23;8.00;99.90
29453;DHT22;16424;50.956;5.320;2023-05-24T04:01:48;8.00;99.90
29453;DHT22;16424;50.956;5.320;2023-05-24T04:04:14;8.00;99.90
29453;DHT22;16424;50.956;5.320;2023-05-24T04:06:40;7.90;99.90
29453;DHT22;16424;50.956;5.320;2023-05-24T04:09:06;8.00;99.90
29453;DHT22;16424;50.956;5.320;2023-05-24T04:11:32;8.00;99.90
29453;DHT22;16424;50.956;5.320;2023-05-24T04:13:58;8.00;99.90
29453;DHT22;16424;50.956;5.320;2023-05-24T04:16:27;8.10;99.90
29453;DHT22;16424;50.956;5.320;2023-05-24T04:18:54;7.90;99.90
29453;DHT22;16424;50.956;5.320;2023-05-24T04:21:20;8.00;99.90
29453;DHT22;16424;50.956;5.320;2023-05-24T04:23:45;8.10;99.90
29453;DHT22;16424;50.956;5.320;2023-05-24T04:26:12;7.90;99.90
29453;DHT22;16424;50.956;5.320;2023-05-24T04:28:37;7.80;99.90
29453;DHT22;16424;50.956;5.320;2023-05-24T04:31:04;7.80;99.90
29453;DHT22;16424;50.956;5.320;2023-05-24T04:33:31;8.10;99.90
29453;DHT22;16424;50.956;5.320;2023-05-24T04:35:57;8.20;99.90
29453;DHT22;16424;50.956;5.320;2023-05-24T04:38:25;8.20;99.90
29453;DHT22;16424;50.956;5.320;2023-05-24T04:40:54;8.20;99.90
29453;DHT22;16424;50.956;5.320;2023-05-24T04:43:21;8.20;99.90
29453;DHT22;16424;50.956;5.320;2023-05-24T04:45:47;8.30;99.90
29453;DHT22;16424;50.956;5.320;2023-05-24T04:48:12;8.40;99.90
29453;DHT22;16424;50.956;5.320;2023-05-24T04:50:38;8.40;99.90
29453;DHT22;16424;50.956;5.320;2023-05-24T04:53:04;8.40;99.90
29453;DHT22;16424;50.956;5.320;2023-05-24T04:55:30;8.50;99.90
29453;DHT22;16424;50.956;5.320;2023-05-24T04:57:56;8.50;99.90
29453;DHT22;16424;50.956;5.320;2023-05-24T05:00:22;8.60;99.90
29453;DHT22;16424;50.956;5.320;2023-05-24T05:02:48;8.70;99.90
29453;DHT22;16424;50.956;5.320;2023-05-24T05:05:14;8.90;99.90
29453;DHT22;16424;50.956;5.320;2023-05-24T05:07:40;9.20;99.90
29453;DHT22;16424;50.956;5.320;2023-05-24T05:10:06;9.30;99.90
29453;DHT22;16424;50.956;5.320;2023-05-24T05:12:32;9.30;99.90
29453;DHT22;16424;50.956;5.320;2023-05-24T05:14:58;9.40;99.90
29453;DHT22;16424;50.956;5.320;2023-05-24T05:17:23;9.50;99.90
29453;DHT22;16424;50.956;5.320;2023-05-24T05:19:49;9.60;99.90
29453;DHT22;16424;50.956;5.320;2023-05-24T05:22:14;9.80;99.90
29453;DHT22;16424;50.956;5.320;2023-05-24T05:24:40;10.10;99.90
29453;DHT22;16424;50.956;5.320;2023-05-24T05:27:06;10.60;99.90
29453;DHT22;16424;50.956;5.320;2023-05-24T05:29:32;11.20;99.90
29453;DHT22;16424;50.956;5.320;2023-05-24T05:31:57;12.20;99.90
29453;DHT22;16424;50.956;5.320;2023-05-24T05:34:23;13.50;99.90
29453;DHT22;16424;50.956;5.320;2023-05-24T05:36:49;14.70;99.90
29453;DHT22;16424;50.956;5.320;2023-05-24T05:39:14;15.80;99.90
29453;DHT22;16424;50.956;5.320;2023-05-24T05:41:40;16.90;99.90
29453;DHT22;16424;50.956;5.320;2023-05-24T05:44:10;17.70;99.90
29453;DHT22;16424;50.956;5.320;2023-05-24T05:46:37;18.50;99.90
29453;DHT22;16424;50.956;5.320;2023-05-24T05:49:03;19.10;99.90
29453;DHT22;16424;50.956;5.320;2023-05-24T05:51:29;19.40;99.90
29453;DHT22;16424;50.956;5.320;2023-05-24T05:53:56;19.80;99.90
29453;DHT22;16424;50.956;5.320;2023-05-24T05:56:22;19.90;99.90
29453;DHT22;16424;50.956;5.320;2023-05-24T05:58:47;20.30;99.90
29453;DHT22;16424;50.956;5.320;2023-05-24T06:01:14;20.50;99.90
29453;DHT22;16424;50.956;5.320;2023-05-24T06:03:41;21.10;99.90
29453;DHT22;16424;50.956;5.320;2023-05-24T06:06:06;21.60;99.90
29453;DHT22;16424;50.956;5.320;2023-05-24T06:08:32;21.90;99.90
29453;DHT22;16424;50.956;5.320;2023-05-24T06:11:00;21.50;99.90
29453;DHT22;16424;50.956;5.320;2023-05-24T06:13:26;21.00;99.90
29453;DHT22;16424;50.956;5.320;2023-05-24T06:15:55;20.70;99.90
29453;DHT22;16424;50.956;5.320;2023-05-24T06:18:23;21.60;99.90
29453;DHT22;16424;50.956;5.320;2023-05-24T06:20:49;21.60;99.90
29453;DHT22;16424;50.956;5.320;2023-05-24T06:23:15;21.50;99.90
29453;DHT22;16424;50.956;5.320;2023-05-24T06:25:41;22.00;99.90
29453;DHT22;16424;50.956;5.320;2023-05-24T06:28:08;22.50;99.90
29453;DHT22;16424;50.956;5.320;2023-05-24T06:30:34;22.50;99.90
29453;DHT22;16424;50.956;5.320;2023-05-24T06:33:00;21.70;99.90
29453;DHT22;16424;50.956;5.320;2023-05-24T06:35:26;21.90;99.90
29453;DHT22;16424;50.956;5.320;2023-05-24T06:37:52;21.70;99.90
29453;DHT22;16424;50.956;5.320;2023-05-24T06:40:18;21.70;99.90
29453;DHT22;16424;50.956;5.320;2023-05-24T06:42:43;21.90;99.90
29453;DHT22;16424;50.956;5.320;2023-05-24T06:45:09;22.30;99.90
29453;DHT22;16424;50.956;5.320;2023-05-24T06:47:35;22.50;99.90
29453;DHT22;16424;50.956;5.320;2023-05-24T06:50:02;22.10;99.90
29453;DHT22;16424;50.956;5.320;2023-05-24T06:52:28;22.40;99.90
29453;DHT22;16424;50.956;5.320;2023-05-24T06:54:54;22.20;99.90
29453;DHT22;16424;50.956;5.320;2023-05-24T06:57:20;22.00;99.90
29453;DHT22;16424;50.956;5.320;2023-05-24T06:59:46;22.60;99.90
29453;DHT22;16424;50.956;5.320;2023-05-24T07:02:12;22.30;99.90
29453;DHT22;16424;50.956;5.320;2023-05-24T07:04:37;23.30;99.90
29453;DHT22;16424;50.956;5.320;2023-05-24T07:07:06;24.70;98.70
29453;DHT22;16424;50.956;5.320;2023-05-24T07:09:33;24.50;98.00
29453;DHT22;16424;50.956;5.320;2023-05-24T07:11:58;23.80;98.40
29453;DHT22;16424;50.956;5.320;2023-05-24T07:14:24;24.10;98.60
29453;DHT22;16424;50.956;5.320;2023-05-24T07:16:51;23.90;97.60
29453;DHT22;16424;50.956;5.320;2023-05-24T07:19:19;23.60;97.30
29453;DHT22;16424;50.956;5.320;2023-05-24T07:21:46;23.00;98.20
29453;DHT22;16424;50.956;5.320;2023-05-24T07:24:12;23.30;97.70
29453;DHT22;16424;50.956;5.320;2023-05-24T07:26:37;24.20;96.80
29453;DHT22;16424;50.956;5.320;2023-05-24T07:29:03;24.20;96.40
29453;DHT22;16424;50.956;5.320;2023-05-24T07:31:29;24.20;97.20
29453;DHT22;16424;50.956;5.320;2023-05-24T07:33:57;23.10;97.20
29453;DHT22;16424;50.956;5.320;2023-05-24T07:36:22;23.70;97.80
29453;DHT22;16424;50.956;5.320;2023-05-24T07:38:50;24.80;96.40
29453;DHT22;16424;50.956;5.320;2023-05-24T07:41:16;25.90;95.70
29453;DHT22;16424;50.956;5.320;2023-05-24T07:43:41;25.60;94.90
29453;DHT22;16424;50.956;5.320;2023-05-24T07:46:07;25.40;94.20
29453;DHT22;16424;50.956;5.320;2023-05-24T07:48:34;25.00;94.70
29453;DHT22;16424;50.956;5.320;2023-05-24T07:51:00;24.30;95.10
29453;DHT22;16424;50.956;5.320;2023-05-24T07:53:26;23.10;95.30
29453;DHT22;16424;50.956;5.320;2023-05-24T07:55:51;22.60;96.00
29453;DHT22;16424;50.956;5.320;2023-05-24T07:58:17;22.60;95.60
29453;DHT22;16424;50.956;5.320;2023-05-24T08:00:43;23.00;95.40
29453;DHT22;16424;50.956;5.320;2023-05-24T08:03:08;23.20;95.50
29453;DHT22;16424;50.956;5.320;2023-05-24T08:05:37;23.60;95.60
29453;DHT22;16424;50.956;5.320;2023-05-24T08:08:03;24.20;93.80
29453;DHT22;16424;50.956;5.320;2023-05-24T08:10:29;25.20;93.30
29453;DHT22;16424;50.956;5.320;2023-05-24T08:12:55;25.80;92.20
29453;DHT22;16424;50.956;5.320;2023-05-24T08:15:21;26.20;92.10
29453;DHT22;16424;50.956;5.320;2023-05-24T08:17:47;25.60;91.30
29453;DHT22;16424;50.956;5.320;2023-05-24T08:20:13;25.30;91.60
29453;DHT22;16424;50.956;5.320;2023-05-24T08:22:40;23.90;92.70
29453;DHT22;16424;50.956;5.320;2023-05-24T08:25:06;23.10;92.60
29453;DHT22;16424;50.956;5.320;2023-05-24T08:27:31;22.20;92.80
29453;DHT22;16424;50.956;5.320;2023-05-24T08:29:57;21.30;93.80
29453;DHT22;16424;50.956;5.320;2023-05-24T08:32:23;20.30;93.80
29453;DHT22;16424;50.956;5.320;2023-05-24T08:34:49;20.30;94.90
29453;DHT22;16424;50.956;5.320;2023-05-24T08:37:14;20.90;95.50
29453;DHT22;16424;50.956;5.320;2023-05-24T08:39:43;21.70;94.50
29453;DHT22;16424;50.956;5.320;2023-05-24T08:42:09;22.30;93.40
29453;DHT22;16424;50.956;5.320;2023-05-24T08:44:46;23.10;93.30
29453;DHT22;16424;50.956;5.320;2023-05-24T08:47:12;23.70;93.70
29453;DHT22;16424;50.956;5.320;2023-05-24T08:49:39;23.70;92.40
29453;DHT22;16424;50.956;5.320;2023-05-24T08:52:05;24.70;91.50
29453;DHT22;16424;50.956;5.320;2023-05-24T08:54:36;24.90;90.90
29453;DHT22;16424;50.956;5.320;2023-05-24T08:57:02;24.90;90.70
29453;DHT22;16424;50.956;5.320;2023-05-24T08:59:28;24.00;91.80
29453;DHT22;16424;50.956;5.320;2023-05-24T09:01:53;23.80;91.70
29453;DHT22;16424;50.956;5.320;2023-05-24T09:04:23;23.20;92.40
29453;DHT22;16424;50.956;5.320;2023-05-24T09:06:50;23.30;93.70
29453;DHT22;16424;50.956;5.320;2023-05-24T09:09:17;24.40;92.90
29453;DHT22;16424;50.956;5.320;2023-05-24T09:11:46;25.50;91.70
29453;DHT22;16424;50.956;5.320;2023-05-24T09:14:14;25.90;90.30
29453;DHT22;16424;50.956;5.320;2023-05-24T09:16:40;26.00;90.20
29453;DHT22;16424;50.956;5.320;2023-05-24T09:19:06;24.80;90.40
29453;DHT22;16424;50.956;5.320;2023-05-24T09:21:32;24.00;91.40
29453;DHT22;16424;50.956;5.320;2023-05-24T09:23:58;23.00;91.90
29453;DHT22;16424;50.956;5.320;2023-05-24T09:26:26;22.50;91.60
29453;DHT22;16424;50.956;5.320;2023-05-24T09:28:54;21.90;92.10
29453;DHT22;16424;50.956;5.320;2023-05-24T09:31:34;21.40;92.90
29453;DHT22;16424;50.956;5.320;2023-05-24T09:34:00;21.50;93.40
29453;DHT22;16424;50.956;5.320;2023-05-24T09:36:27;21.10;93.30
29453;DHT22;16424;50.956;5.320;2023-05-24T09:39:10;21.20;93.50
29453;DHT22;16424;50.956;5.320;2023-05-24T09:41:36;20.90;93.00
29453;DHT22;16424;50.956;5.320;2023-05-24T09:44:02;20.50;93.90
29453;DHT22;16424;50.956;5.320;2023-05-24T09:46:29;20.10;93.80
29453;DHT22;16424;50.956;5.320;2023-05-24T09:49:00;19.90;94.80
29453;DHT22;16424;50.956;5.320;2023-05-24T09:51:28;19.40;96.00
29453;DHT22;16424;50.956;5.320;2023-05-24T09:54:00;19.80;95.70
29453;DHT22;16424;50.956;5.320;2023-05-24T09:56:26;20.50;94.80
29453;DHT22;16424;50.956;5.320;2023-05-24T09:58:52;20.40;95.00
29453;DHT22;16424;50.956;5.320;2023-05-24T10:01:21;20.20;94.80
29453;DHT22;16424;50.956;5.320;2023-05-24T10:03:55;20.30;95.00
29453;DHT22;16424;50.956;5.320;2023-05-24T10:06:22;20.10;94.40
29453;DHT22;16424;50.956;5.320;2023-05-24T10:08:49;20.10;95.00
29453;DHT22;16424;50.956;5.320;2023-05-24T10:11:16;19.80;95.60
29453;DHT22;16424;50.956;5.320;2023-05-24T10:13:42;19.30;95.70
29453;DHT22;16424;50.956;5.320;2023-05-24T10:16:07;19.20;96.30
29453;DHT22;16424;50.956;5.320;2023-05-24T10:18:33;19.10;96.70
29453;DHT22;16424;50.956;5.320;2023-05-24T10:21:00;18.70;97.60
29453;DHT22;16424;50.956;5.320;2023-05-24T10:23:30;18.90;97.80
29453;DHT22;16424;50.956;5.320;2023-05-24T10:26:15;18.80;97.60
29453;DHT22;16424;50.956;5.320;2023-05-24T10:28:46;19.40;96.90
29453;DHT22;16424;50.956;5.320;2023-05-24T10:31:30;19.10;97.00
29453;DHT22;16424;50.956;5.320;2023-05-24T10:33:58;19.20;97.00
29453;DHT22;16424;50.956;5.320;2023-05-24T10:36:25;19.00;97.40
29453;DHT22;16424;50.956;5.320;2023-05-24T10:38:51;18.90;97.50
29453;DHT22;16424;50.956;5.320;2023-05-24T10:41:17;18.70;97.40
29453;DHT22;16424;50.956;5.320;2023-05-24T10:43:45;18.70;98.30
29453;DHT22;16424;50.956;5.320;2023-05-24T10:46:14;19.00;98.20
29453;DHT22;16424;50.956;5.320;2023-05-24T10:48:43;18.90;97.30
29453;DHT22;16424;50.956;5.320;2023-05-24T10:51:29;19.00;97.90
29453;DHT22;16424;50.956;5.320;2023-05-24T10:54:18;19.50;97.60
29453;DHT22;16424;50.956;5.320;2023-05-24T10:56:49;19.50;96.80
29453;DHT22;16424;50.956;5.320;2023-05-24T10:59:34;19.30;96.90
29453;DHT22;16424;50.956;5.320;2023-05-24T11:02:03;19.30;97.50
29453;DHT22;16424;50.956;5.320;2023-05-24T11:04:37;19.60;98.00
29453;DHT22;16424;50.956;5.320;2023-05-24T11:07:08;19.70;96.90
29453;DHT22;16424;50.956;5.320;2023-05-24T11:09:39;19.70;96.60
29453;DHT22;16424;50.956;5.320;2023-05-24T11:12:16;19.30;97.30
29453;DHT22;16424;50.956;5.320;2023-05-24T11:14:50;19.40;97.50
29453;DHT22;16424;50.956;5.320;2023-05-24T11:17:20;19.10;95.90
29453;DHT22;16424;50.956;5.320;2023-05-24T11:19:50;18.90;97.10
29453;DHT22;16424;50.956;5.320;2023-05-24T11:22:18;19.10;95.90
29453;DHT22;16424;50.956;5.320;2023-05-24T11:24:44;18.90;96.30
29453;DHT22;16424;50.956;5.320;2023-05-24T11:27:11;18.60;97.00
29453;DHT22;16424;50.956;5.320;2023-05-24T11:29:43;18.40;96.60
29453;DHT22;16424;50.956;5.320;2023-05-24T11:32:09;18.50;98.80
29453;DHT22;16424;50.956;5.320;2023-05-24T11:34:38;18.80;99.30
29453;DHT22;16424;50.956;5.320;2023-05-24T11:37:04;18.90;99.10
29453;DHT22;16424;50.956;5.320;2023-05-24T11:39:35;18.80;98.80
29453;DHT22;16424;50.956;5.320;2023-05-24T11:42:05;19.30;96.60
29453;DHT22;16424;50.956;5.320;2023-05-24T11:44:32;19.40;96.30
29453;DHT22;16424;50.956;5.320;2023-05-24T11:46:59;19.70;95.50
29453;DHT22;16424;50.956;5.320;2023-05-24T11:49:25;19.90;96.50
29453;DHT22;16424;50.956;5.320;2023-05-24T11:51:55;19.90;95.60
29453;DHT22;16424;50.956;5.320;2023-05-24T11:54:22;19.80;95.00
29453;DHT22;16424;50.956;5.320;2023-05-24T11:56:48;19.70;94.90
29453;DHT22;16424;50.956;5.320;2023-05-24T11:59:22;19.50;94.90
29453;DHT22;16424;50.956;5.320;2023-05-24T12:01:59;19.10;95.70
29453;DHT22;16424;50.956;5.320;2023-05-24T12:04:29;19.20;96.80
29453;DHT22;16424;50.956;5.320;2023-05-24T12:06:56;19.40;95.50
29453;DHT22;16424;50.956;5.320;2023-05-24T12:09:22;19.40;95.90
29453;DHT22;16424;50.956;5.320;2023-05-24T12:11:49;19.30;96.10
29453;DHT22;16424;50.956;5.320;2023-05-24T12:14:17;19.10;95.40
29453;DHT22;16424;50.956;5.320;2023-05-24T12:16:44;19.20;95.60
29453;DHT22;16424;50.956;5.320;2023-05-24T12:19:17;19.20;96.00
29453;DHT22;16424;50.956;5.320;2023-05-24T12:21:44;19.10;96.80
29453;DHT22;16424;50.956;5.320;2023-05-24T12:24:18;18.90;97.10
29453;DHT22;16424;50.956;5.320;2023-05-24T12:26:47;18.60;97.00
29453;DHT22;16424;50.956;5.320;2023-05-24T12:29:14;18.50;97.90
29453;DHT22;16424;50.956;5.320;2023-05-24T12:31:40;18.60;97.90
29453;DHT22;16424;50.956;5.320;2023-05-24T12:34:19;18.90;98.20
29453;DHT22;16424;50.956;5.320;2023-05-24T12:36:48;19.30;97.60
29453;DHT22;16424;50.956;5.320;2023-05-24T12:39:21;19.30;97.10
29453;DHT22;16424;50.956;5.320;2023-05-24T12:41:51;19.20;97.10
29453;DHT22;16424;50.956;5.320;2023-05-24T12:44:23;19.30;97.10
29453;DHT22;16424;50.956;5.320;2023-05-24T12:46:53;19.50;96.50
29453;DHT22;16424;50.956;5.320;2023-05-24T12:49:19;19.50;95.70
29453;DHT22;16424;50.956;5.320;2023-05-24T12:51:45;19.30;95.80
29453;DHT22;16424;50.956;5.320;2023-05-24T12:54:10;19.30;96.40
29453;DHT22;16424;50.956;5.320;2023-05-24T12:56:36;19.20;97.00
29453;DHT22;16424;50.956;5.320;2023-05-24T12:59:02;18.90;97.20
29453;DHT22;16424;50.956;5.320;2023-05-24T13:01:29;19.00;97.30
29453;DHT22;16424;50.956;5.320;2023-05-24T13:03:54;19.10;97.40
29453;DHT22;16424;50.956;5.320;2023-05-24T13:06:20;19.00;96.70
29453;DHT22;16424;50.956;5.320;2023-05-24T13:08:46;18.50;97.10
29453;DHT22;16424;50.956;5.320;2023-05-24T13:11:12;18.40;97.60
29453;DHT22;16424;50.956;5.320;2023-05-24T13:13:37;18.20;96.90
29453;DHT22;16424;50.956;5.320;2023-05-24T13:16:04;18.30;97.50
29453;DHT22;16424;50.956;5.320;2023-05-24T13:18:34;18.30;98.20
29453;DHT22;16424;50.956;5.320;2023-05-24T13:21:02;18.10;98.10
29453;DHT22;16424;50.956;5.320;2023-05-24T13:23:30;17.90;98.60
29453;DHT22;16424;50.956;5.320;2023-05-24T13:25:56;17.80;98.50
29453;DHT22;16424;50.956;5.320;2023-05-24T13:28:21;17.70;98.40
29453;DHT22;16424;50.956;5.320;2023-05-24T13:30:47;17.80;99.00
29453;DHT22;16424;50.956;5.320;2023-05-24T13:33:13;17.90;99.00
29453;DHT22;16424;50.956;5.320;2023-05-24T13:35:39;17.90;99.30
29453;DHT22;16424;50.956;5.320;2023-05-24T13:38:05;17.70;98.70
29453;DHT22;16424;50.956;5.320;2023-05-24T13:40:31;17.70;99.00
29453;DHT22;16424;50.956;5.320;2023-05-24T13:42:57;17.80;99.30
29453;DHT22;16424;50.956;5.320;2023-05-24T13:45:23;17.80;99.00
29453;DHT22;16424;50.956;5.320;2023-05-24T13:47:49;18.00;99.40
29453;DHT22;16424;50.956;5.320;2023-05-24T13:50:16;18.00;98.70
29453;DHT22;16424;50.956;5.320;2023-05-24T13:52:42;17.90;98.90
29453;DHT22;16424;50.956;5.320;2023-05-24T13:55:08;17.70;99.20
29453;DHT22;16424;50.956;5.320;2023-05-24T13:57:35;17.80;99.30
29453;DHT22;16424;50.956;5.320;2023-05-24T14:00:01;17.60;99.30
29453;DHT22;16424;50.956;5.320;2023-05-24T14:02:27;17.70;99.90
29453;DHT22;16424;50.956;5.320;2023-05-24T14:04:53;18.00;99.80
29453;DHT22;16424;50.956;5.320;2023-05-24T14:07:19;18.30;99.30
29453;DHT22;16424;50.956;5.320;2023-05-24T14:09:48;18.50;99.40
29453;DHT22;16424;50.956;5.320;2023-05-24T14:12:14;18.70;99.30
29453;DHT22;16424;50.956;5.320;2023-05-24T14:14:40;18.70;99.10
29453;DHT22;16424;50.956;5.320;2023-05-24T14:17:05;18.40;99.10
29453;DHT22;16424;50.956;5.320;2023-05-24T14:19:31;18.50;99.00
29453;DHT22;16424;50.956;5.320;2023-05-24T14:21:57;18.20;99.30
29453;DHT22;16424;50.956;5.320;2023-05-24T14:24:23;18.40;99.90
29453;DHT22;16424;50.956;5.320;2023-05-24T14:26:49;18.40;99.60
29453;DHT22;16424;50.956;5.320;2023-05-24T14:29:14;18.40;99.70
29453;DHT22;16424;50.956;5.320;2023-05-24T14:31:40;18.50;99.30
29453;DHT22;16424;50.956;5.320;2023-05-24T14:34:10;18.70;99.20
29453;DHT22;16424;50.956;5.320;2023-05-24T14:36:36;18.70;98.90
29453;DHT22;16424;50.956;5.320;2023-05-24T14:39:04;18.80;98.90
29453;DHT22;16424;50.956;5.320;2023-05-24T14:41:31;18.90;99.20
29453;DHT22;16424;50.956;5.320;2023-05-24T14:43:57;18.80;99.80
29453;DHT22;16424;50.956;5.320;2023-05-24T14:46:22;18.90;99.10
29453;DHT22;16424;50.956;5.320;2023-05-24T14:48:48;18.90;99.10
29453;DHT22;16424;50.956;5.320;2023-05-24T14:51:14;18.80;98.10
29453;DHT22;16424;50.956;5.320;2023-05-24T14:53:40;18.90;98.90
29453;DHT22;16424;50.956;5.320;2023-05-24T14:56:08;19.00;99.20
29453;DHT22;16424;50.956;5.320;2023-05-24T14:58:34;19.00;99.50
29453;DHT22;16424;50.956;5.320;2023-05-24T15:01:00;19.30;98.80
29453;DHT22;16424;50.956;5.320;2023-05-24T15:03:26;19.30;98.70
29453;DHT22;16424;50.956;5.320;2023-05-24T15:05:52;19.50;98.60
29453;DHT22;16424;50.956;5.320;2023-05-24T15:08:18;19.60;99.20
29453;DHT22;16424;50.956;5.320;2023-05-24T15:10:43;19.80;99.10
29453;DHT22;16424;50.956;5.320;2023-05-24T15:13:10;20.10;99.00
29453;DHT22;16424;50.956;5.320;2023-05-24T15:15:36;19.80;97.50
29453;DHT22;16424;50.956;5.320;2023-05-24T15:18:02;19.50;98.40
29453;DHT22;16424;50.956;5.320;2023-05-24T15:20:28;19.00;99.40
29453;DHT22;16424;50.956;5.320;2023-05-24T15:22:54;18.70;99.00
29453;DHT22;16424;50.956;5.320;2023-05-24T15:25:20;18.40;99.90
29453;DHT22;16424;50.956;5.320;2023-05-24T15:27:46;18.40;99.70
29453;DHT22;16424;50.956;5.320;2023-05-24T15:30:12;18.30;99.90
29453;DHT22;16424;50.956;5.320;2023-05-24T15:32:38;18.20;99.90
29453;DHT22;16424;50.956;5.320;2023-05-24T15:35:04;18.10;99.90
29453;DHT22;16424;50.956;5.320;2023-05-24T15:37:30;18.00;99.90
29453;DHT22;16424;50.956;5.320;2023-05-24T15:39:56;17.90;99.90
29453;DHT22;16424;50.956;5.320;2023-05-24T15:42:21;17.90;99.90
29453;DHT22;16424;50.956;5.320;2023-05-24T15:44:49;18.00;99.90
29453;DHT22;16424;50.956;5.320;2023-05-24T15:47:15;18.00;99.90